Time;durP1;ratioP1;P1;durP2;ratioP2;P2;SDS_P1;SDS_P2;PMS_P1;PMS_P2;Temp;Humidity;BMP_temperature;BMP_pressure;BME280_temperature;BME280_humidity;BME280_pressure;Samples;Min_cycle;Max_cycle;Signal;HPM_P1;HPM_P2
2022/03/07 00:01:25;;;;;;;38.88;28.40;;;;;;;2.40;47.79;100576.66;5032177;28;20112;-78
2022/03/07 00:03:54;;;;;;;40.97;30.27;;;;;;;2.37;48.36;100571.53;5028961;28;20127;-75
2022/03/07 00:06:21;;;;;;;45.72;30.58;;;;;;;2.33;48.38;100569.94;5029667;28;20053;-77
2022/03/07 00:08:48;;;;;;;39.63;26.30;;;;;;;2.29;48.43;100570.94;5030696;28;20499;-75
2022/03/07 00:11:16;;;;;;;37.10;25.63;;;;;;;2.33;48.22;100563.88;5029103;28;20052;-75
2022/03/07 00:13:44;;;;;;;33.42;22.35;;;;;;;2.45;47.97;100561.72;5028076;28;20168;-74
2022/03/07 00:16:11;;;;;;;38.97;26.17;;;;;;;2.47;48.00;100565.09;5029340;28;20057;-75
2022/03/07 00:18:38;;;;;;;39.58;26.08;;;;;;;2.42;47.99;100574.84;5028548;28;20132;-76
2022/03/07 00:21:08;;;;;;;37.00;26.60;;;;;;;2.41;48.28;100567.94;5027121;28;20113;-74
2022/03/07 00:23:35;;;;;;;38.33;21.88;;;;;;;2.49;47.62;100560.69;5028642;28;20080;-75
2022/03/07 00:26:02;;;;;;;31.77;21.05;;;;;;;2.54;47.40;100563.16;5028569;28;20120;-74
2022/03/07 00:28:29;;;;;;;27.60;21.13;;;;;;;2.55;47.13;100561.38;5027789;28;20608;-74
2022/03/07 00:30:57;;;;;;;30.92;17.67;;;;;;;2.60;46.96;100568.16;5029187;28;20049;-74
2022/03/07 00:33:24;;;;;;;30.02;20.27;;;;;;;2.63;46.71;100562.84;5027402;28;20120;-74
2022/03/07 00:35:51;;;;;;;29.88;20.20;;;;;;;2.57;46.88;100570.00;5027728;28;20103;-78
2022/03/07 00:38:20;;;;;;;33.75;20.90;;;;;;;2.55;46.94;100577.03;5028040;28;20148;-77
2022/03/07 00:40:48;;;;;;;29.83;19.40;;;;;;;2.60;46.71;100578.56;5027974;28;20115;-77
2022/03/07 00:43:15;;;;;;;28.95;20.50;;;;;;;2.55;46.96;100579.66;5028757;28;20109;-73
2022/03/07 00:45:42;;;;;;;30.52;20.35;;;;;;;2.49;47.34;100589.38;5028053;28;20083;-76
2022/03/07 00:48:09;;;;;;;32.83;20.60;;;;;;;2.48;47.22;100579.88;5028563;28;20056;-77
2022/03/07 00:50:42;;;;;;;29.10;17.73;;;;;;;2.60;46.82;100581.19;5028052;28;20045;-77
2022/03/07 00:53:09;;;;;;;30.08;19.83;;;;;;;2.62;47.16;100579.38;5033600;28;20060;-71
2022/03/07 00:55:38;;;;;;;34.92;22.10;;;;;;;2.63;47.14;100580.25;5037339;28;20050;-77
2022/03/07 00:58:06;;;;;;;29.58;20.15;;;;;;;2.64;47.30;100579.31;5036827;28;20137;-73
2022/03/07 01:00:34;;;;;;;33.35;21.42;;;;;;;2.60;47.20;100577.72;5036378;28;20124;-74
2022/03/07 01:03:01;;;;;;;37.05;20.80;;;;;;;2.58;47.20;100575.19;5034624;28;20109;-76
2022/03/07 01:05:31;;;;;;;39.88;23.95;;;;;;;2.62;47.19;100581.13;5030888;28;20079;-73
2022/03/07 01:07:58;;;;;;;35.67;21.60;;;;;;;2.61;47.32;100569.00;5031024;28;20081;-73
2022/03/07 01:10:25;;;;;;;35.17;23.15;;;;;;;2.61;47.17;100569.00;5031867;28;20124;-74
2022/03/07 01:12:54;;;;;;;27.23;17.13;;;;;;;2.54;47.19;100557.06;5032470;28;20452;-78
2022/03/07 01:15:22;;;;;;;31.67;20.98;;;;;;;2.54;47.13;100564.88;5031228;28;20124;-77
2022/03/07 01:17:50;;;;;;;25.35;18.95;;;;;;;2.58;46.87;100553.47;5030637;28;20563;-74
2022/03/07 01:20:17;;;;;;;23.50;19.45;;;;;;;2.48;46.55;100548.56;5028715;28;20049;-83
2022/03/07 01:22:44;;;;;;;23.83;15.05;;;;;;;2.53;46.40;100556.22;5030607;28;20135;-74
2022/03/07 01:25:11;;;;;;;21.67;16.35;;;;;;;2.56;45.93;100550.91;5032412;28;20124;-80
2022/03/07 01:27:38;;;;;;;20.95;13.32;;;;;;;2.61;45.15;100541.19;5032930;28;20050;-73
2022/03/07 01:30:08;;;;;;;17.90;12.82;;;;;;;2.63;44.43;100541.13;5031110;28;20101;-73
2022/03/07 01:32:36;;;;;;;22.20;12.63;;;;;;;2.65;44.26;100541.91;5030613;28;20038;-72
2022/03/07 01:35:05;;;;;;;16.65;10.70;;;;;;;2.67;43.85;100540.09;4996815;28;20056;-74
2022/03/07 01:37:32;;;;;;;13.10;9.00;;;;;;;2.65;43.04;100544.53;5030828;28;20081;-74
2022/03/07 01:39:59;;;;;;;14.50;10.63;;;;;;;2.64;42.61;100535.84;5029855;28;20140;-74
2022/03/07 01:42:27;;;;;;;12.52;9.63;;;;;;;2.68;42.42;100536.56;5031605;28;20056;-76
2022/03/07 01:44:54;;;;;;;15.50;9.68;;;;;;;2.64;42.16;100532.38;5029913;28;20045;-72
2022/03/07 01:47:24;;;;;;;13.07;8.98;;;;;;;2.67;41.94;100522.69;5034900;28;20561;-72
2022/03/07 01:49:52;;;;;;;15.82;9.57;;;;;;;2.72;42.19;100517.31;5031937;28;20053;-73
2022/03/07 01:52:20;;;;;;;12.13;9.50;;;;;;;2.77;42.17;100524.97;5035557;28;20037;-74
2022/03/07 01:54:48;;;;;;;17.73;9.40;;;;;;;2.76;42.05;100526.75;5035315;28;20053;-76
2022/03/07 01:57:16;;;;;;;10.13;8.93;;;;;;;2.74;41.69;100525.94;5030938;28;20076;-77
2022/03/07 01:59:43;;;;;;;11.70;9.13;;;;;;;2.71;41.93;100522.59;5031157;28;20502;-71
2022/03/07 02:02:10;;;;;;;24.27;10.88;;;;;;;2.72;41.88;100524.28;5031117;28;20129;-73
2022/03/07 02:04:41;;;;;;;16.00;9.98;;;;;;;2.74;42.02;100523.34;5030430;28;20060;-77
2022/03/07 02:07:08;;;;;;;18.25;12.18;;;;;;;2.70;42.01;100519.09;5029673;28;20532;-76
2022/03/07 02:09:35;;;;;;;18.83;10.68;;;;;;;2.77;41.99;100522.34;5031159;28;20073;-77
2022/03/07 02:12:02;;;;;;;19.98;10.52;;;;;;;2.73;41.91;100511.19;5031993;28;20124;-74
2022/03/07 02:14:30;;;;;;;14.55;9.40;;;;;;;2.74;41.57;100512.03;5028815;28;20065;-73
2022/03/07 02:16:58;;;;;;;17.25;10.95;;;;;;;2.74;41.71;100506.81;5027779;28;20045;-72
2022/03/07 02:19:25;;;;;;;11.68;10.18;;;;;;;2.66;41.33;100513.16;5026477;28;20105;-75
2022/03/07 02:22:00;;;;;;;18.92;10.65;;;;;;;2.71;41.70;100507.78;5029838;28;20049;-77
2022/03/07 02:24:28;;;;;;;;;;;;;;;2.89;41.26;100502.81;5032597;28;20050;-74
2022/03/07 02:27:00;;;;;;;20.17;11.43;;;;;;;2.70;41.65;100505.22;5033784;28;19956;-79
2022/03/07 02:29:28;;;;;;;17.10;10.27;;;;;;;2.57;41.60;100502.22;5031025;28;20054;-75
2022/03/07 02:31:55;;;;;;;21.35;11.88;;;;;;;2.61;41.62;100509.00;5030611;28;20049;-78
2022/03/07 02:34:22;;;;;;;17.80;10.40;;;;;;;2.61;41.79;100503.78;5028375;28;20424;-74
2022/03/07 02:36:49;;;;;;;17.20;10.20;;;;;;;2.58;41.68;100498.72;5027025;28;20042;-74
2022/03/07 02:39:18;;;;;;;21.63;13.02;;;;;;;2.61;41.71;100499.44;5027617;28;20050;-72
2022/03/07 02:41:46;;;;;;;14.85;11.35;;;;;;;2.63;41.84;100496.78;5027144;28;20132;-71
2022/03/07 02:44:14;;;;;;;16.77;13.13;;;;;;;2.52;42.54;100491.09;5026408;28;20125;-72
2022/03/07 02:46:42;;;;;;;15.18;12.23;;;;;;;2.42;42.96;100486.19;5027544;28;20401;-73
2022/03/07 02:49:09;;;;;;;14.25;8.55;;;;;;;2.48;42.91;100491.22;5027484;28;20488;-73
2022/03/07 02:51:36;;;;;;;17.60;12.80;;;;;;;2.44;43.51;100488.75;5028803;28;20443;-78
2022/03/07 02:54:04;;;;;;;19.67;12.05;;;;;;;2.34;44.04;100488.25;5029033;28;20049;-78
2022/03/07 02:56:33;;;;;;;14.43;10.30;;;;;;;2.27;44.19;100484.97;5030478;28;20421;-72
2022/03/07 02:59:03;;;;;;;17.92;12.30;;;;;;;2.28;44.30;100488.44;5033082;28;20049;-74
2022/03/07 03:01:30;;;;;;;19.88;13.43;;;;;;;2.29;44.53;100492.75;5031011;28;20045;-73
2022/03/07 03:03:57;;;;;;;15.32;11.75;;;;;;;2.29;44.78;100490.16;5031880;28;20077;-73
2022/03/07 03:06:24;;;;;;;18.92;13.88;;;;;;;2.29;44.99;100495.38;5029106;28;20627;-74
2022/03/07 03:08:51;;;;;;;21.65;14.20;;;;;;;2.31;45.25;100497.91;5030148;28;20124;-77
2022/03/07 03:11:18;;;;;;;20.48;13.30;;;;;;;2.27;45.52;100497.19;5033365;28;20056;-71
2022/03/07 03:13:46;;;;;;;20.80;12.90;;;;;;;2.26;45.70;100493.69;5032497;28;20050;-77
2022/03/07 03:16:14;;;;;;;19.08;13.48;;;;;;;2.27;45.95;100502.38;5031440;28;20049;-81
2022/03/07 03:18:41;;;;;;;14.93;11.55;;;;;;;2.26;46.30;100500.66;5031669;28;20133;-74
2022/03/07 03:21:08;;;;;;;14.30;11.23;;;;;;;2.28;46.20;100501.47;5029114;28;20049;-78
2022/03/07 03:23:35;;;;;;;14.35;10.90;;;;;;;2.25;46.70;100496.34;5030692;28;20126;-72
2022/03/07 03:26:03;;;;;;;18.77;11.48;;;;;;;2.22;46.94;100491.25;5031624;28;20140;-78
2022/03/07 03:28:30;;;;;;;15.05;11.18;;;;;;;2.23;46.76;100491.22;5029914;28;20051;-75
2022/03/07 03:30:58;;;;;;;16.88;10.77;;;;;;;2.25;47.04;100489.41;5031455;28;20448;-75
2022/03/07 03:33:25;;;;;;;15.60;11.10;;;;;;;2.28;46.82;100493.66;5031321;28;20049;-75
2022/03/07 03:35:53;;;;;;;14.07;10.30;;;;;;;2.28;46.98;100483.22;5031531;28;20149;-73
2022/03/07 03:38:20;;;;;;;16.45;10.45;;;;;;;2.25;46.84;100486.78;5030818;28;20114;-73
2022/03/07 03:40:48;;;;;;;13.65;9.27;;;;;;;2.23;47.03;100495.56;5031588;28;20057;-73
2022/03/07 03:43:15;;;;;;;15.13;11.43;;;;;;;2.22;47.21;100493.88;5031489;28;20085;-82
2022/03/07 03:45:42;;;;;;;21.77;11.82;;;;;;;2.23;47.46;100483.41;5031333;28;20137;-72
2022/03/07 03:48:11;;;;;;;20.10;13.20;;;;;;;2.18;47.61;100493.13;5030922;28;20136;-72
2022/03/07 03:50:38;;;;;;;18.40;11.38;;;;;;;2.21;47.53;100494.75;5029634;28;20133;-72
2022/03/07 03:53:06;;;;;;;18.35;12.18;;;;;;;2.24;47.64;100489.44;5031789;28;20054;-73
2022/03/07 03:55:33;;;;;;;39.83;22.70;;;;;;;2.18;48.04;100489.66;5031013;28;20128;-73
2022/03/07 03:58:00;;;;;;;43.88;22.23;;;;;;;2.21;48.02;100486.94;5028259;28;20049;-73
2022/03/07 04:00:28;;;;;;;37.97;21.13;;;;;;;2.20;48.46;100493.06;5029636;28;20053;-72
2022/03/07 04:02:55;;;;;;;27.08;19.75;;;;;;;2.16;48.47;100486.25;5029019;28;20053;-73
2022/03/07 04:05:24;;;;;;;19.60;12.57;;;;;;;2.16;48.71;100488.84;5030928;28;20052;-74
2022/03/07 04:07:51;;;;;;;17.75;14.30;;;;;;;2.18;48.65;100492.25;5029984;28;20128;-77
2022/03/07 04:10:18;;;;;;;21.55;13.60;;;;;;;2.14;48.78;100499.31;5029382;28;20068;-76
2022/03/07 04:12:45;;;;;;;23.42;15.13;;;;;;;2.09;49.24;100498.66;5030178;28;20045;-73
2022/03/07 04:15:13;;;;;;;21.40;13.23;;;;;;;2.08;49.45;100496.94;5029709;28;20151;-72
2022/03/07 04:17:41;;;;;;;25.42;13.63;;;;;;;2.00;49.65;100486.78;5029446;28;20053;-79
2022/03/07 04:20:09;;;;;;;18.75;13.13;;;;;;;1.92;50.15;100491.38;5027616;28;20100;-73
2022/03/07 04:22:38;;;;;;;18.25;12.95;;;;;;;1.94;50.11;100488.72;5029200;28;20081;-73
2022/03/07 04:25:07;;;;;;;19.20;13.75;;;;;;;1.91;50.13;100494.91;5029639;28;20391;-74
2022/03/07 04:27:34;;;;;;;20.33;12.70;;;;;;;1.92;50.17;100479.19;5009792;28;20055;-73
2022/03/07 04:30:03;;;;;;;18.45;15.18;;;;;;;1.94;50.08;100479.16;5029542;28;20051;-73
2022/03/07 04:32:30;;;;;;;18.83;15.07;;;;;;;1.86;50.35;100487.22;5028726;28;20042;-73
2022/03/07 04:34:57;;;;;;;17.75;14.68;;;;;;;1.81;50.96;100478.69;5029269;28;20052;-72
2022/03/07 04:37:25;;;;;;;20.85;15.73;;;;;;;1.71;51.05;100478.16;5028724;28;20052;-73
2022/03/07 04:39:53;;;;;;;22.08;16.08;;;;;;;1.64;51.39;100471.44;5028038;28;20132;-74
2022/03/07 04:42:21;;;;;;;21.02;15.75;;;;;;;1.56;51.65;100478.63;5029759;28;20042;-82
2022/03/07 04:44:47;;;;;;;24.45;15.43;;;;;;;1.55;51.70;100474.34;5029646;28;20049;-75
2022/03/07 04:47:15;;;;;;;31.02;17.35;;;;;;;1.50;51.87;100486.66;5029924;28;20046;-74
2022/03/07 04:49:42;;;;;;;39.58;24.50;;;;;;;1.38;52.62;100479.22;5027825;28;20485;-74
2022/03/07 04:52:09;;;;;;;76.00;34.70;;;;;;;1.27;52.88;100472.59;5029772;28;20057;-73
2022/03/07 04:54:36;;;;;;;71.20;29.33;;;;;;;1.27;52.97;100484.75;5030466;28;20049;-74
2022/03/07 04:57:05;;;;;;;40.55;24.48;;;;;;;1.20;53.33;100476.28;5029880;28;20140;-73
2022/03/07 04:59:31;;;;;;;26.30;19.38;;;;;;;1.13;53.94;100474.75;5030251;28;20050;-75
2022/03/07 05:01:59;;;;;;;27.88;17.48;;;;;;;1.13;53.65;100472.16;5029580;28;20105;-73
2022/03/07 05:04:26;;;;;;;25.52;20.48;;;;;;;1.07;54.29;100465.38;5029183;28;20124;-73
2022/03/07 05:06:53;;;;;;;29.45;19.13;;;;;;;1.07;53.97;100469.75;5029066;28;20057;-80
2022/03/07 05:09:20;;;;;;;26.20;17.13;;;;;;;1.03;54.22;100479.38;5028409;28;20049;-72
2022/03/07 05:11:47;;;;;;;32.97;20.75;;;;;;;0.99;54.52;100476.91;5028684;28;20624;-77
2022/03/07 05:14:15;;;;;;;30.73;20.75;;;;;;;0.94;54.58;100480.50;5026016;28;20068;-71
2022/03/07 05:16:42;;;;;;;26.80;17.17;;;;;;;0.94;54.37;100480.50;5028447;28;20124;-79
2022/03/07 05:19:09;;;;;;;30.08;16.85;;;;;;;0.92;54.56;100477.09;5025136;28;20513;-74
2022/03/07 05:21:36;;;;;;;27.45;17.58;;;;;;;0.87;55.04;100478.97;5027549;28;20075;-73
2022/03/07 05:24:03;;;;;;;28.65;17.60;;;;;;;0.86;55.08;100472.06;5026312;28;20449;-70
2022/03/07 05:26:30;;;;;;;25.55;18.60;;;;;;;0.86;55.05;100481.63;5026123;28;20121;-70
2022/03/07 05:28:57;;;;;;;31.35;19.00;;;;;;;0.80;55.13;100487.84;5032416;28;20049;-74
2022/03/07 05:31:26;;;;;;;27.75;19.60;;;;;;;0.83;55.12;100481.69;5030896;28;20486;-70
2022/03/07 05:33:53;;;;;;;29.73;22.05;;;;;;;0.78;55.73;100487.03;5024974;28;20049;-70
2022/03/07 05:36:22;;;;;;;35.25;19.08;;;;;;;0.80;55.27;100482.66;5027177;28;20124;-73
2022/03/07 05:38:50;;;;;;;32.97;20.98;;;;;;;0.80;55.68;100490.44;4965250;28;20137;-76
2022/03/07 05:41:17;;;;;;;29.85;18.77;;;;;;;0.81;55.47;100491.28;4966227;28;20042;-71
2022/03/07 05:43:44;;;;;;;31.50;19.50;;;;;;;0.81;55.72;100489.56;4963792;28;20047;-73
2022/03/07 05:46:11;;;;;;;31.55;23.52;;;;;;;0.74;55.95;100486.28;4962782;28;20652;-72
2022/03/07 05:48:40;;;;;;;30.52;20.80;;;;;;;0.82;56.42;100486.06;4966470;28;20129;-77
2022/03/07 05:51:07;;;;;;;27.20;20.02;;;;;;;0.81;56.49;100488.69;4965665;28;20101;-71
2022/03/07 05:53:34;;;;;;;31.80;22.88;;;;;;;0.82;56.38;100485.22;4964726;28;20593;-72
2022/03/07 05:56:01;;;;;;;32.67;19.70;;;;;;;0.85;56.04;100492.94;4969752;28;20046;-75
2022/03/07 05:58:28;;;;;;;35.53;22.85;;;;;;;0.81;56.51;100486.09;5024197;28;20137;-74
2022/03/07 06:00:55;;;;;;;35.05;25.00;;;;;;;0.87;56.18;100486.78;5023426;28;20416;-74
2022/03/07 06:03:22;;;;;;;41.03;25.98;;;;;;;0.85;56.44;100485.97;5024797;28;20516;-75
2022/03/07 06:05:50;;;;;;;33.75;23.35;;;;;;;0.89;56.43;100484.97;5023969;28;20073;-72
2022/03/07 06:08:18;;;;;;;33.13;22.50;;;;;;;0.90;56.71;100483.22;5024565;28;20403;-71
2022/03/07 06:10:45;;;;;;;37.38;26.23;;;;;;;0.88;57.01;100485.91;5019091;28;20053;-71
2022/03/07 06:13:12;;;;;;;45.28;30.95;;;;;;;0.92;56.99;100486.66;5023795;28;20132;-73
2022/03/07 06:15:43;;;;;;;47.45;29.67;;;;;;;0.97;57.06;100489.94;5023469;28;21035;-70
2022/03/07 06:18:11;;;;;;;52.92;29.85;;;;;;;1.04;57.11;100481.06;5022501;28;20045;-71
2022/03/07 06:20:38;;;;;;;56.10;28.08;;;;;;;1.14;57.21;100484.28;5020825;28;20048;-71
2022/03/07 06:23:07;;;;;;;32.45;22.42;;;;;;;1.24;57.37;100477.91;5023248;28;20154;-71
2022/03/07 06:25:34;;;;;;;34.63;25.48;;;;;;;1.23;57.38;100472.75;5022928;28;20153;-71
2022/03/07 06:28:02;;;;;;;33.05;22.35;;;;;;;1.26;57.30;100465.69;5023071;28;20107;-74
2022/03/07 06:30:30;;;;;;;37.22;24.83;;;;;;;1.24;57.58;100466.63;5026368;28;20045;-74
2022/03/07 06:32:57;;;;;;;35.22;24.92;;;;;;;1.34;57.34;100461.09;5024945;28;20517;-73
2022/03/07 06:35:24;;;;;;;34.78;25.52;;;;;;;1.30;57.76;100461.25;5024793;28;20049;-75
2022/03/07 06:37:53;;;;;;;37.35;26.75;;;;;;;1.29;57.85;100465.56;5024272;28;20076;-75
2022/03/07 06:40:23;;;;;;;37.75;24.95;;;;;;;1.37;57.85;100457.56;5025887;28;20081;-76
2022/03/07 06:42:51;;;;;;;43.78;25.20;;;;;;;1.38;58.06;100461.00;5025834;28;20058;-76
2022/03/07 06:45:18;;;;;;;36.85;26.15;;;;;;;1.39;58.16;100460.09;5028496;28;20129;-75
2022/03/07 06:47:46;;;;;;;32.55;21.77;;;;;;;1.44;57.64;100461.66;5028790;28;20057;-74
2022/03/07 06:50:16;;;;;;;33.47;20.27;;;;;;;1.55;57.55;100460.47;5025796;28;20219;-75
2022/03/07 06:52:43;;;;;;;30.55;22.63;;;;;;;1.53;57.92;100450.09;5028347;28;20075;-75
2022/03/07 06:55:10;;;;;;;34.15;23.08;;;;;;;1.57;57.90;100456.91;5028177;28;20108;-73
2022/03/07 06:57:40;;;;;;;30.40;22.77;;;;;;;1.65;57.39;100461.88;5027496;28;20104;-73
2022/03/07 07:00:12;;;;;;;34.17;20.27;;;;;;;1.80;57.24;100457.91;5028545;28;20052;-74
2022/03/07 07:02:41;;;;;;;32.22;21.88;;;;;;;1.79;57.34;100464.03;5027338;28;20385;-74
2022/03/07 07:05:10;;;;;;;30.35;19.98;;;;;;;1.85;57.31;100466.44;5026416;28;20056;-74
2022/03/07 07:07:39;;;;;;;28.23;21.75;;;;;;;1.85;57.29;100463.81;5028426;28;20045;-72
2022/03/07 07:10:15;;;;;;;29.08;19.35;;;;;;;1.90;57.21;100470.59;5028036;28;20666;-74
2022/03/07 07:12:48;;;;;;;34.58;21.95;;;;;;;1.95;57.30;100467.00;5028418;28;20111;-73
2022/03/07 07:15:17;;;;;;;31.02;20.35;;;;;;;2.01;56.67;100472.00;5028138;28;20056;-72
2022/03/07 07:17:45;;;;;;;28.88;19.05;;;;;;;2.09;56.93;100467.38;5027775;28;20756;-73
2022/03/07 07:20:12;;;;;;;26.77;19.38;;;;;;;2.17;56.70;100475.78;5027410;28;20132;-74
2022/03/07 07:22:40;;;;;;;28.92;17.38;;;;;;;2.37;56.32;100467.25;5029022;28;20394;-75
2022/03/07 07:25:10;;;;;;;24.95;19.63;;;;;;;2.42;56.28;100467.09;5029921;28;20114;-75
2022/03/07 07:27:39;;;;;;;31.38;18.63;;;;;;;2.41;56.12;100476.69;5033648;28;20103;-74
2022/03/07 07:30:09;;;;;;;38.97;22.67;;;;;;;2.37;56.47;100474.25;5030238;28;20128;-74
2022/03/07 07:32:40;;;;;;;34.25;24.40;;;;;;;2.38;56.31;100471.59;5031605;28;20049;-74
2022/03/07 07:35:07;;;;;;;32.85;21.58;;;;;;;2.42;56.27;100474.94;5030709;28;20448;-73
2022/03/07 07:37:35;;;;;;;27.55;20.98;;;;;;;2.44;56.25;100471.34;5031927;28;20060;-73
2022/03/07 07:40:03;;;;;;;30.65;21.20;;;;;;;2.53;56.04;100471.94;5029723;28;20092;-73
2022/03/07 07:42:30;;;;;;;27.83;21.15;;;;;;;2.56;55.73;100483.13;5030005;28;20063;-75
2022/03/07 07:44:57;;;;;;;22.35;15.98;;;;;;;2.66;55.14;100483.63;5029269;28;20132;-73
2022/03/07 07:47:26;;;;;;;26.80;21.00;;;;;;;2.66;55.62;100478.41;5029116;28;20133;-76
2022/03/07 07:49:53;;;;;;;26.27;19.05;;;;;;;2.81;55.25;100477.00;5027805;28;20041;-75
2022/03/07 07:52:20;;;;;;;27.23;19.73;;;;;;;2.92;55.10;100473.97;5030663;28;20045;-74
2022/03/07 07:54:47;;;;;;;32.72;20.48;;;;;;;3.02;54.88;100477.97;5028467;28;20056;-74
2022/03/07 07:57:14;;;;;;;37.17;22.33;;;;;;;3.11;54.85;100490.66;5030643;28;20049;-73
2022/03/07 07:59:41;;;;;;;28.67;22.58;;;;;;;3.17;54.22;100474.78;5029639;28;20551;-74
2022/03/07 08:02:08;;;;;;;23.02;17.30;;;;;;;3.19;54.04;100472.97;5028102;28;20046;-76
2022/03/07 08:04:37;;;;;;;23.92;19.00;;;;;;;3.21;54.09;100468.53;5029110;28;20854;-75
2022/03/07 08:07:04;;;;;;;26.52;18.63;;;;;;;3.32;53.93;100477.72;5044661;28;20059;-74
2022/03/07 08:09:34;;;;;;;24.00;18.73;;;;;;;3.43;54.02;100470.31;5028687;28;20107;-73
2022/03/07 08:12:02;;;;;;;24.23;18.10;;;;;;;3.55;53.49;100468.97;5042672;28;20049;-76
2022/03/07 08:14:29;;;;;;;26.52;18.42;;;;;;;3.55;53.67;100467.22;5043679;28;20056;-76
2022/03/07 08:16:56;;;;;;;28.42;18.67;;;;;;;3.71;53.33;100456.13;5044857;28;20110;-74
2022/03/07 08:19:23;;;;;;;23.33;13.85;;;;;;;3.76;53.13;100460.28;5043308;28;20158;-73
2022/03/07 08:21:52;;;;;;;18.25;13.98;;;;;;;3.82;52.60;100456.56;5041841;28;20133;-74
2022/03/07 08:24:20;;;;;;;21.05;14.18;;;;;;;3.93;52.29;100454.34;5041481;28;20075;-73
2022/03/07 08:26:48;;;;;;;23.88;13.95;;;;;;;4.10;52.13;100458.84;5043184;28;20132;-73
2022/03/07 08:29:15;;;;;;;24.63;15.07;;;;;;;4.24;51.52;100457.44;5043069;28;20060;-75
2022/03/07 08:31:42;;;;;;;15.98;10.38;;;;;;;4.30;51.05;100458.00;5042311;28;20072;-74
2022/03/07 08:34:09;;;;;;;21.33;13.65;;;;;;;4.32;50.95;100463.16;5046113;28;20045;-75
2022/03/07 08:36:36;;;;;;;19.05;13.55;;;;;;;4.33;50.33;100463.09;5043564;28;20101;-75
2022/03/07 08:39:05;;;;;;;19.15;14.70;;;;;;;4.33;50.34;100457.88;5043271;28;20068;-75
2022/03/07 08:41:34;;;;;;;20.35;11.40;;;;;;;4.42;50.08;100461.00;5039400;28;20119;-73
2022/03/07 08:44:01;;;;;;;16.52;12.38;;;;;;;4.47;49.37;100446.81;5037408;28;20091;-74
2022/03/07 08:46:28;;;;;;;12.68;9.20;;;;;;;4.51;48.63;100460.59;5041934;28;20109;-75
2022/03/07 08:48:55;;;;;;;14.32;8.15;;;;;;;4.61;48.40;100456.69;5046842;28;20052;-75
2022/03/07 08:51:22;;;;;;;13.70;9.60;;;;;;;4.65;48.28;100462.63;5044462;28;20037;-74
2022/03/07 08:53:49;;;;;;;11.10;6.53;;;;;;;4.72;47.47;100464.88;5043918;28;20272;-75
2022/03/07 08:56:18;;;;;;;12.13;7.82;;;;;;;4.81;47.00;100457.53;5045348;28;20080;-74
2022/03/07 08:58:45;;;;;;;9.38;5.70;;;;;;;4.86;46.58;100459.03;5039493;28;20512;-76
2022/03/07 09:01:12;;;;;;;12.93;8.90;;;;;;;4.92;46.80;100457.91;5043434;28;20045;-75
2022/03/07 09:03:39;;;;;;;12.57;7.43;;;;;;;4.97;46.78;100448.91;5033666;28;20440;-76
2022/03/07 09:06:06;;;;;;;12.70;9.35;;;;;;;5.15;46.37;100451.63;5032339;28;20064;-74
2022/03/07 09:08:33;;;;;;;16.30;8.55;;;;;;;5.32;46.55;100451.66;5033520;28;20049;-75
2022/03/07 09:11:00;;;;;;;11.93;8.75;;;;;;;5.63;46.01;100444.09;5033338;28;20054;-74
2022/03/07 09:13:29;;;;;;;12.05;7.85;;;;;;;5.72;46.00;100441.84;5032894;28;20045;-74
2022/03/07 09:15:56;;;;;;;10.20;6.55;;;;;;;5.78;45.73;100445.09;5031649;28;20049;-74
2022/03/07 09:18:25;;;;;;;12.05;7.55;;;;;;;5.84;45.49;100440.41;5026282;28;20140;-74
2022/03/07 09:20:52;;;;;;;12.05;7.50;;;;;;;5.85;45.53;100449.97;5022929;28;20042;-74
2022/03/07 09:23:19;;;;;;;13.93;8.00;;;;;;;5.84;45.41;100445.66;5023766;28;20401;-76
2022/03/07 09:25:46;;;;;;;11.88;9.32;;;;;;;5.83;46.06;100451.81;5032363;28;20065;-76
2022/03/07 09:28:13;;;;;;;13.82;9.68;;;;;;;5.88;46.08;100449.81;5034123;28;20073;-75
2022/03/07 09:30:42;;;;;;;11.20;8.10;;;;;;;5.91;46.08;100449.66;5027774;28;20061;-74
2022/03/07 09:33:09;;;;;;;10.63;8.60;;;;;;;5.99;45.99;100448.47;5027448;28;20125;-76
2022/03/07 09:35:36;;;;;;;12.85;8.75;;;;;;;5.99;45.99;100449.31;5027136;28;20087;-74
2022/03/07 09:38:03;;;;;;;13.60;7.80;;;;;;;5.99;45.89;100453.69;5026488;28;20099;-73
2022/03/07 09:40:30;;;;;;;19.73;10.18;;;;;;;6.03;46.07;100444.75;5026707;28;20358;-76
2022/03/07 09:42:59;;;;;;;18.45;10.65;;;;;;;6.16;45.89;100451.09;5026586;28;20132;-74
2022/03/07 09:45:26;;;;;;;13.98;8.13;;;;;;;6.19;45.57;100448.28;5031028;28;20120;-76
2022/03/07 09:47:55;;;;;;;11.43;7.95;;;;;;;6.26;45.65;100452.28;5028061;28;20591;-75
2022/03/07 09:50:22;;;;;;;13.60;8.50;;;;;;;6.17;45.95;100442.28;5024374;28;20076;-76
2022/03/07 09:52:50;;;;;;;14.70;8.85;;;;;;;6.35;45.83;100450.13;5039824;28;20105;-75
2022/03/07 09:55:18;;;;;;;9.35;7.40;;;;;;;6.33;45.32;100458.06;5023313;28;20053;-74
2022/03/07 09:57:48;;;;;;;16.40;8.63;;;;;;;6.51;45.07;100451.03;5024034;28;20056;-74
2022/03/07 10:00:17;;;;;;;15.68;12.05;;;;;;;6.60;45.36;100450.53;5023867;28;20139;-76
2022/03/07 10:02:58;;;;;;;14.95;10.90;;;;;;;6.46;46.36;100445.16;5024057;28;20313;-76
2022/03/07 10:05:30;;;;;;;14.88;12.27;;;;;;;6.31;46.34;100447.66;5023800;28;20045;-74
2022/03/07 10:07:58;;;;;;;20.20;13.68;;;;;;;6.29;46.54;100440.81;5023217;28;20088;-74
2022/03/07 10:10:30;;;;;;;16.92;12.20;;;;;;;6.25;46.29;100440.13;5022068;28;20045;-75
2022/03/07 10:12:57;;;;;;;21.90;17.15;;;;;;;6.31;46.83;100442.41;5023895;28;20099;-76
2022/03/07 10:15:24;;;;;;;17.13;15.02;;;;;;;6.35;46.74;100448.34;5022702;28;20052;-76
2022/03/07 10:17:55;;;;;;;20.63;15.23;;;;;;;6.30;46.50;100438.13;5023049;28;20128;-74
2022/03/07 10:20:24;;;;;;;23.30;14.88;;;;;;;6.32;46.30;100440.66;5027117;28;20091;-76
2022/03/07 10:22:53;;;;;;;20.05;17.50;;;;;;;6.19;47.09;100440.41;5025418;28;20049;-75
2022/03/07 10:25:24;;;;;;;20.00;16.23;;;;;;;6.09;47.43;100444.47;5026594;28;20041;-76
2022/03/07 10:27:52;;;;;;;23.20;18.25;;;;;;;6.15;47.70;100432.81;5026190;28;20053;-75
2022/03/07 10:30:21;;;;;;;24.10;21.50;;;;;;;6.12;47.90;100444.28;5025670;28;20146;-74
2022/03/07 10:32:56;;;;;;;26.98;21.30;;;;;;;5.98;48.21;100442.38;5026302;28;20050;-74
2022/03/07 10:35:26;;;;;;;31.58;18.48;;;;;;;5.98;48.47;100441.50;5026461;28;20132;-74
2022/03/07 10:37:57;;;;;;;26.98;22.10;;;;;;;5.86;48.66;100445.56;5025464;28;20053;-75
2022/03/07 10:40:24;;;;;;;34.15;23.70;;;;;;;5.79;49.03;100444.19;5025355;28;20049;-73
2022/03/07 10:42:53;;;;;;;35.15;23.70;;;;;;;5.91;49.20;100441.78;5026481;28;20136;-74
2022/03/07 10:45:20;;;;;;;36.60;27.30;;;;;;;5.97;49.25;100440.66;5023389;28;20095;-74
2022/03/07 10:47:54;;;;;;;34.60;24.63;;;;;;;5.96;49.63;100444.22;5025656;28;20076;-76
2022/03/07 10:50:24;;;;;;;31.02;19.77;;;;;;;6.04;49.08;100447.31;5024593;28;20792;-76
2022/03/07 10:52:53;;;;;;;26.55;21.52;;;;;;;6.05;48.76;100450.75;5026543;28;20128;-75
2022/03/07 10:55:24;;;;;;;30.50;22.23;;;;;;;5.84;49.32;100440.41;5025236;28;20060;-75
2022/03/07 10:57:51;;;;;;;40.63;24.10;;;;;;;5.66;49.87;100436.09;5026135;28;20057;-75
2022/03/07 11:00:21;;;;;;;29.13;22.77;;;;;;;5.52;49.97;100440.19;5025978;28;20046;-75
2022/03/07 11:02:49;;;;;;;29.90;24.55;;;;;;;5.40;50.31;100443.41;5026477;28;20148;-78
2022/03/07 11:05:18;;;;;;;28.90;21.20;;;;;;;5.30;50.37;100450.88;5027517;28;20129;-76
2022/03/07 11:07:49;;;;;;;33.50;24.58;;;;;;;5.20;50.68;100444.34;5028452;28;20080;-77
2022/03/07 11:10:17;;;;;;;26.77;19.10;;;;;;;5.24;50.83;100438.09;5027489;28;20042;-74
2022/03/07 11:12:45;;;;;;;29.33;24.33;;;;;;;5.38;50.82;100433.94;5031244;28;20045;-74
2022/03/07 11:15:18;;;;;;;27.23;21.33;;;;;;;5.31;50.93;100436.00;5032449;28;20049;-75
2022/03/07 11:17:46;;;;;;;26.40;22.05;;;;;;;5.41;50.37;100424.16;5032876;28;20405;-76
2022/03/07 11:20:15;;;;;;;25.90;18.20;;;;;;;5.61;50.18;100432.84;5024060;28;20148;-75
2022/03/07 11:22:42;;;;;;;26.52;21.05;;;;;;;5.96;49.54;100425.00;5024537;28;20077;-73